Time;durP1;ratioP1;P1;durP2;ratioP2;P2;SDS_P1;SDS_P2;PMS_P1;PMS_P2;Temp;Humidity;BMP_temperature;BMP_pressure;BME280_temperature;BME280_humidity;BME280_pressure;Samples;Min_cycle;Max_cycle;Signal;HPM_P1;HPM_P2
2023/01/14 00:02:20;;;;;;;;;2.50;2.00;;;;;8.41;78.95;99766.72;5098536;28;8903;-58
2023/01/14 00:04:48;;;;;;;;;4.75;4.75;;;;;8.41;78.52;99765.88;5099024;28;8845;-56
2023/01/14 00:07:17;;;;;;;;;0.00;0.00;;;;;8.41;78.76;99764.06;5099246;28;9512;-57
2023/01/14 00:09:45;;;;;;;;;3.75;3.25;;;;;8.41;78.82;99766.72;5098842;28;8818;-59
2023/01/14 00:12:13;;;;;;;;;1.00;1.00;;;;;8.42;78.59;99768.41;5099190;28;8830;-59
2023/01/14 00:14:41;;;;;;;;;1.00;1.00;;;;;8.43;79.15;99764.81;5098928;28;8902;-59
2023/01/14 00:17:09;;;;;;;;;1.50;1.50;;;;;8.43;78.82;99785.19;5098853;28;8840;-58
2023/01/14 00:19:37;;;;;;;;;2.00;2.00;;;;;8.42;78.49;99764.91;5098962;28;8955;-58
2023/01/14 00:22:05;;;;;;;;;1.00;1.00;;;;;8.41;78.70;99768.53;5098774;28;8900;-57
2023/01/14 00:24:33;;;;;;;;;1.50;1.50;;;;;8.41;78.97;99761.44;5098637;28;8894;-56
2023/01/14 00:27:01;;;;;;;;;0.25;0.25;;;;;8.40;78.58;99753.56;5098170;28;8845;-58
2023/01/14 00:29:28;;;;;;;;;1.00;1.00;;;;;8.37;78.62;99759.94;5098296;28;8825;-58
2023/01/14 00:31:56;;;;;;;;;1.00;0.75;;;;;8.35;78.77;99756.56;5098697;28;9712;-58
2023/01/14 00:34:24;;;;;;;;;0.50;0.50;;;;;8.33;78.83;99758.50;5098360;28;8852;-55
2023/01/14 00:36:52;;;;;;;;;3.25;3.25;;;;;8.31;78.70;99754.25;5098038;28;8830;-56
2023/01/14 00:39:20;;;;;;;;;2.00;2.00;;;;;8.30;79.04;99748.09;5098116;28;8833;-57
2023/01/14 00:41:48;;;;;;;;;4.00;2.25;;;;;8.29;78.92;99746.41;5097876;28;8846;-58
2023/01/14 00:44:17;;;;;;;;;3.25;1.50;;;;;8.28;78.75;99744.72;5097634;28;8842;-56
2023/01/14 00:46:45;;;;;;;;;3.00;2.50;;;;;8.26;79.00;99751.94;5098003;28;8916;-57
2023/01/14 00:49:13;;;;;;;;;3.25;1.00;;;;;8.24;79.04;99747.69;5097915;28;8895;-58
2023/01/14 00:51:40;;;;;;;;;3.00;3.00;;;;;8.24;79.02;99751.22;5097483;28;9516;-56
2023/01/14 00:54:08;;;;;;;;;3.25;2.75;;;;;8.24;78.89;99753.00;5097594;28;8806;-58
2023/01/14 00:56:36;;;;;;;;;1.00;1.00;;;;;8.23;79.18;99753.97;5097898;28;8830;-58
2023/01/14 00:59:04;;;;;;;;;2.50;2.50;;;;;8.23;78.66;99754.81;5097815;28;8818;-58
2023/01/14 01:01:32;;;;;;;;;1.00;1.00;;;;;8.24;78.82;99764.47;5097941;28;8842;-56
2023/01/14 01:04:00;;;;;;;;;1.00;1.00;;;;;8.24;78.64;99767.13;5097765;28;8857;-56
2023/01/14 01:06:28;;;;;;;;;3.00;3.00;;;;;8.23;78.69;99762.78;5097777;28;8852;-58
2023/01/14 01:08:56;;;;;;;;;0.00;0.00;;;;;8.26;78.43;99769.66;5098249;28;8848;-57
2023/01/14 01:11:23;;;;;;;;;2.00;2.00;;;;;8.27;78.68;99785.47;5097708;28;8869;-57
2023/01/14 01:13:51;;;;;;;;;2.50;1.00;;;;;8.27;78.83;99780.16;5097580;28;8834;-55
2023/01/14 01:16:23;;;;;;;;;0.00;0.00;;;;;8.26;78.48;99785.56;5097828;28;8848;-55
2023/01/14 01:18:52;;;;;;;;;1.00;1.00;;;;;8.26;78.89;99785.56;5097534;28;8948;-58
2023/01/14 01:21:19;;;;;;;;;4.00;3.75;;;;;8.25;78.91;99797.13;5097455;28;8861;-58
2023/01/14 01:23:47;;;;;;;;;3.00;2.00;;;;;8.25;79.00;99794.47;5097542;28;8838;-58
2023/01/14 01:26:17;;;;;;;;;3.00;2.00;;;;;8.22;78.87;99811.47;5097211;28;8997;-58
2023/01/14 01:28:44;;;;;;;;;3.00;3.00;;;;;8.23;78.95;99804.34;5097005;28;8798;-58
2023/01/14 01:31:12;;;;;;;;;2.50;2.00;;;;;8.22;78.56;99808.81;5097230;28;8828;-57
2023/01/14 01:33:40;;;;;;;;;3.25;3.25;;;;;8.22;79.15;99808.81;5097134;28;8818;-58
2023/01/14 01:36:08;;;;;;;;;3.00;1.00;;;;;8.23;78.92;99820.28;5096668;28;8838;-58
2023/01/14 01:38:35;;;;;;;;;0.25;0.00;;;;;8.21;78.95;99823.03;5097212;28;8837;-58
2023/01/14 01:41:03;;;;;;;;;0.75;0.00;;;;;8.22;78.65;99827.38;5097365;28;8842;-58
2023/01/14 01:43:30;;;;;;;;;6.25;5.50;;;;;8.21;79.21;99820.38;5096342;28;8845;-58
2023/01/14 01:45:59;;;;;;;;;2.00;0.75;;;;;8.20;78.92;99820.50;5096055;28;8838;-57
2023/01/14 01:48:27;;;;;;;;;0.00;0.00;;;;;8.20;78.85;99821.34;5096936;28;8826;-57
2023/01/14 01:50:55;;;;;;;;;0.00;0.00;;;;;8.20;79.09;99816.03;5096471;28;9555;-58
2023/01/14 01:53:22;;;;;;;;;0.50;0.50;;;;;8.20;78.79;99816.03;5097157;28;8869;-58
2023/01/14 01:55:50;;;;;;;;;2.00;1.00;;;;;8.18;78.86;99823.22;5096837;28;8820;-57
2023/01/14 01:58:17;;;;;;;;;1.00;1.00;;;;;8.12;79.24;99823.66;5096564;28;8826;-57
2023/01/14 02:00:45;;;;;;;;;0.00;0.00;;;;;8.09;79.11;99834.50;5096349;28;8853;-57
2023/01/14 02:03:13;;;;;;;;;3.00;3.00;;;;;8.07;79.36;99825.78;5096814;28;8840;-58
2023/01/14 02:05:41;;;;;;;;;0.25;0.25;;;;;8.05;79.38;99821.56;5096475;28;8875;-59
2023/01/14 02:08:08;;;;;;;;;1.00;1.00;;;;;8.01;79.09;99822.72;5097081;28;8901;-58
2023/01/14 02:10:36;;;;;;;;;1.00;1.00;;;;;7.96;79.38;99830.16;5096982;28;8818;-59
2023/01/14 02:13:04;;;;;;;;;1.00;1.00;;;;;7.93;79.21;99811.81;5097002;28;8826;-59
2023/01/14 02:15:32;;;;;;;;;3.00;3.00;;;;;7.86;79.27;99827.31;5096680;28;8818;-57
2023/01/14 02:18:00;;;;;;;;;0.75;0.75;;;;;7.87;79.71;99813.13;5097087;28;8826;-58
2023/01/14 02:20:28;;;;;;;;;5.25;3.25;;;;;7.86;79.31;99815.88;5096719;28;8837;-59
2023/01/14 02:22:55;;;;;;;;;0.00;0.00;;;;;7.86;79.62;99816.72;5096734;28;9586;-58
2023/01/14 02:25:23;;;;;;;;;0.75;0.75;;;;;7.85;79.45;99822.94;5096450;28;8840;-59
2023/01/14 02:27:51;;;;;;;;;1.00;0.25;;;;;7.84;79.21;99817.78;5096178;28;8814;-59
2023/01/14 02:30:18;;;;;;;;;1.00;1.00;;;;;7.85;79.82;99819.47;5096257;28;8842;-58
2023/01/14 02:32:46;;;;;;;;;1.00;0.50;;;;;7.87;79.38;99818.41;5096716;28;8818;-58
2023/01/14 02:35:14;;;;;;;;;0.00;0.00;;;;;7.87;79.25;99817.56;5096320;28;8890;-58
2023/01/14 02:37:42;;;;;;;;;3.00;0.75;;;;;7.87;79.51;99813.13;5096289;28;8830;-58
2023/01/14 02:40:09;;;;;;;;;0.50;0.50;;;;;7.89;79.22;99818.28;5095212;28;8838;-58
2023/01/14 02:45:22;;;;;;;;;1.00;1.00;;;;;7.85;79.30;99814.16;5095942;28;8838;-59
2023/01/14 02:47:50;;;;;;;;;0.50;0.50;;;;;7.84;79.78;99818.63;5095781;28;8833;-58
2023/01/14 02:50:18;;;;;;;;;3.00;1.00;;;;;7.84;79.19;99808.00;5095362;28;8848;-59
2023/01/14 02:52:45;;;;;;;;;1.00;1.00;;;;;7.84;79.24;99807.19;5095980;28;8822;-58
2023/01/14 02:55:13;;;;;;;;;0.00;0.00;;;;;7.83;79.38;99798.38;5096211;28;8818;-58
2023/01/14 02:57:40;;;;;;;;;0.75;0.50;;;;;7.84;79.41;99797.41;5095905;28;8807;-59
2023/01/14 03:00:08;;;;;;;;;1.00;1.00;;;;;7.81;79.41;99795.00;5095378;28;8846;-58
2023/01/14 03:02:36;;;;;;;;;3.00;2.50;;;;;7.78;79.40;99786.41;5096079;28;8818;-58
2023/01/14 03:05:04;;;;;;;;;2.00;1.50;;;;;7.72;79.68;99782.38;5095216;28;8834;-58
2023/01/14 03:07:31;;;;;;;;;0.00;0.00;;;;;7.68;79.36;99779.22;5096209;28;8826;-59
2023/01/14 03:10:00;;;;;;;;;0.00;0.00;;;;;7.62;79.80;99783.13;5095912;28;8850;-57
2023/01/14 03:12:28;;;;;;;;;2.50;1.00;;;;;7.59;79.79;99778.03;5100728;28;8833;-58
2023/01/14 03:14:57;;;;;;;;;1.00;0.50;;;;;7.57;79.81;99769.34;5100282;28;8810;-58
2023/01/14 03:17:24;;;;;;;;;1.00;1.00;;;;;7.55;79.69;99765.97;5099955;28;8803;-58
2023/01/14 03:19:52;;;;;;;;;2.75;2.50;;;;;7.56;79.96;99765.03;5099711;28;8833;-57
2023/01/14 03:22:20;;;;;;;;;2.00;1.00;;;;;7.59;79.94;99756.00;5099569;28;8877;-58
2023/01/14 03:24:48;;;;;;;;;1.50;0.00;;;;;7.59;79.78;99756.00;5099737;28;8846;-59
2023/01/14 03:27:18;;;;;;;;;0.00;0.00;;;;;7.56;79.66;99745.63;5099672;28;8814;-57
2023/01/14 03:29:46;;;;;;;;;0.75;0.50;;;;;7.54;79.59;99744.88;5099869;28;9529;-58
2023/01/14 03:32:14;;;;;;;;;0.00;0.00;;;;;7.52;79.57;99741.50;5100056;28;8826;-58
2023/01/14 03:34:42;;;;;;;;;0.00;0.00;;;;;7.50;79.85;99731.00;5099816;28;8818;-58
2023/01/14 03:37:10;;;;;;;;;1.00;0.00;;;;;7.49;79.99;99726.66;5099677;28;8846;-59
2023/01/14 03:39:37;;;;;;;;;3.00;2.50;;;;;7.48;80.13;99718.81;5099957;28;8818;-59
2023/01/14 03:42:20;;;;;;;;;4.50;3.50;;;;;7.46;80.17;99726.91;5099968;28;8826;-59
2023/01/14 03:44:48;;;;;;;;;1.00;1.00;;;;;7.49;80.15;99731.13;5099581;28;8865;-58
2023/01/14 03:47:16;;;;;;;;;0.00;0.00;;;;;7.49;79.99;99731.13;5099654;28;8834;-58
2023/01/14 03:49:44;;;;;;;;;1.50;1.00;;;;;7.49;80.05;99720.53;5099290;28;8821;-59
2023/01/14 03:52:12;;;;;;;;;0.50;0.50;;;;;7.49;80.02;99720.53;5099553;28;8935;-58
2023/01/14 03:54:39;;;;;;;;;1.00;0.25;;;;;7.48;80.08;99719.69;5099188;28;8873;-58
2023/01/14 03:57:07;;;;;;;;;3.00;1.50;;;;;7.43;80.03;99711.19;5099262;28;8874;-58
2023/01/14 03:59:35;;;;;;;;;0.00;0.00;;;;;7.41;80.54;99717.56;5098992;28;8810;-58
2023/01/14 04:02:03;;;;;;;;;0.00;0.00;;;;;7.38;80.00;99723.06;5099023;28;8830;-59
2023/01/14 04:04:31;;;;;;;;;0.00;0.00;;;;;7.38;79.84;99720.44;5099228;28;8830;-59
2023/01/14 04:06:59;;;;;;;;;3.00;1.00;;;;;7.35;80.33;99718.00;5099048;28;8868;-58
2023/01/14 04:09:26;;;;;;;;;3.50;2.75;;;;;7.34;80.46;99724.25;5098920;28;8831;-59
2023/01/14 04:11:54;;;;;;;;;1.00;0.25;;;;;7.34;79.99;99724.25;5098998;28;8822;-57
2023/01/14 04:17:07;;;;;;;;;2.25;1.25;;;;;7.30;80.08;99720.13;5099148;28;8841;-58
2023/01/14 04:19:35;;;;;;;;;0.75;0.75;;;;;7.29;80.31;99718.44;5099090;28;9476;-56
2023/01/14 04:22:03;;;;;;;;;1.00;0.25;;;;;7.27;80.53;99704.47;5098120;28;9547;-57
2023/01/14 04:24:31;;;;;;;;;1.00;1.00;;;;;7.23;80.72;99706.47;5098547;28;8829;-58
2023/01/14 04:26:58;;;;;;;;;2.50;2.50;;;;;7.20;80.31;99704.03;5098925;28;9496;-58
2023/01/14 04:29:26;;;;;;;;;0.00;0.00;;;;;7.21;80.19;99711.00;5098746;28;8829;-59
2023/01/14 04:31:53;;;;;;;;;1.25;1.00;;;;;7.23;80.21;99705.59;5098553;28;8915;-58
2023/01/14 04:34:21;;;;;;;;;1.25;1.25;;;;;7.25;80.80;99696.63;5098784;28;8838;-59
2023/01/14 04:36:49;;;;;;;;;3.00;3.00;;;;;7.30;80.25;99696.28;5098600;28;8833;-59
2023/01/14 04:39:17;;;;;;;;;2.00;2.00;;;;;7.34;79.85;99687.19;5098680;28;8822;-58
2023/01/14 04:44:31;;;;;;;;;3.00;3.00;;;;;7.35;80.00;99688.88;5097706;28;8877;-58
2023/01/14 04:46:58;;;;;;;;;1.00;0.00;;;;;7.34;80.10;99684.53;5098138;28;8931;-58
2023/01/14 04:49:26;;;;;;;;;0.75;0.75;;;;;7.39;79.81;99688.53;5097245;28;8940;-59
2023/01/14 04:51:54;;;;;;;;;1.00;1.00;;;;;7.43;79.85;99690.00;5098037;28;8853;-58
2023/01/14 04:54:21;;;;;;;;;3.00;0.50;;;;;7.45;79.95;99672.22;5098240;28;8806;-58
2023/01/14 04:56:49;;;;;;;;;3.25;3.00;;;;;7.48;79.68;99679.94;5097823;28;8822;-59
2023/01/14 04:59:17;;;;;;;;;1.00;0.00;;;;;7.49;79.40;99678.97;5098121;28;8842;-59
2023/01/14 05:01:44;;;;;;;;;0.00;0.00;;;;;7.50;79.48;99674.53;5096910;28;8841;-58
2023/01/14 05:04:12;;;;;;;;;2.00;1.50;;;;;7.50;79.79;99664.78;5096479;28;9464;-58
2023/01/14 05:06:40;;;;;;;;;0.25;0.25;;;;;7.49;79.91;99668.38;5096779;28;8830;-59
2023/01/14 05:09:08;;;;;;;;;0.00;0.00;;;;;7.50;79.66;99669.25;5096963;28;8861;-58
2023/01/14 05:11:35;;;;;;;;;2.50;1.00;;;;;7.54;79.46;99662.75;5096838;28;8935;-58
2023/01/14 05:14:03;;;;;;;;;2.50;1.50;;;;;7.54;79.43;99660.09;5096755;28;8834;-59
2023/01/14 05:16:31;;;;;;;;;0.00;0.00;;;;;7.52;79.40;99654.06;5096598;28;8910;-56
2023/01/14 05:18:58;;;;;;;;;0.25;0.25;;;;;7.48;79.71;99649.94;5096980;28;8837;-58
2023/01/14 05:21:27;;;;;;;;;0.00;0.00;;;;;7.43;79.74;99654.75;5097967;28;8852;-59
2023/01/14 05:23:54;;;;;;;;;0.75;0.75;;;;;7.38;79.58;99638.31;5097284;28;8818;-57
2023/01/14 05:26:22;;;;;;;;;1.00;1.00;;;;;7.33;79.81;99630.72;5097563;28;8818;-58
2023/01/14 05:28:49;;;;;;;;;0.00;0.00;;;;;7.29;80.13;99629.22;5097670;28;8830;-59
2023/01/14 05:31:17;;;;;;;;;0.25;0.00;;;;;7.24;80.21;99622.56;5097480;28;8834;-59
2023/01/14 05:33:45;;;;;;;;;0.00;0.00;;;;;7.23;79.83;99628.81;5096789;28;8868;-58
2023/01/14 05:36:13;;;;;;;;;1.75;1.75;;;;;7.21;79.89;99626.28;5097181;28;8829;-59
2023/01/14 05:38:40;;;;;;;;;0.25;0.00;;;;;7.20;79.85;99619.28;5097554;28;8846;-58
2023/01/14 05:41:09;;;;;;;;;2.00;1.00;;;;;7.20;79.70;99613.16;5097510;28;8834;-59
2023/01/14 05:46:22;;;;;;;;;0.50;0.50;;;;;7.16;79.95;99601.09;5096707;28;8895;-59
2023/01/14 05:48:50;;;;;;;;;0.25;0.00;;;;;7.13;79.75;99596.84;5097087;28;8914;-58
2023/01/14 05:51:17;;;;;;;;;1.00;0.00;;;;;7.10;79.83;99590.94;5097135;28;8834;-59
2023/01/14 05:53:45;;;;;;;;;0.00;0.00;;;;;7.07;80.21;99585.88;5097265;28;9496;-58
2023/01/14 05:56:12;;;;;;;;;0.50;0.50;;;;;7.08;79.87;99580.47;5096983;28;8830;-59
2023/01/14 05:58:40;;;;;;;;;0.00;0.00;;;;;7.08;79.68;99569.88;5097005;28;8842;-59
2023/01/14 06:06:39;;;;;;;;;0.50;0.50;;;;;7.14;79.49;99568.59;5096370;28;8825;-59
2023/01/14 06:09:08;;;;;;;;;0.00;0.00;;;;;7.15;78.97;99567.63;5096692;28;8830;-59
2023/01/14 06:11:36;;;;;;;;;3.00;0.50;;;;;7.15;79.19;99565.84;5096456;28;8826;-59
2023/01/14 06:14:04;;;;;;;;;0.25;0.25;;;;;7.15;79.25;99559.69;5095424;28;8822;-58
2023/01/14 06:16:38;;;;;;;;;0.00;0.00;;;;;7.16;79.27;99564.03;5095528;28;8818;-58
2023/01/14 06:19:06;;;;;;;;;0.00;0.00;;;;;7.15;79.41;99557.03;5095238;28;8853;-58
2023/01/14 06:21:35;;;;;;;;;0.50;0.50;;;;;7.14;79.85;99552.69;5095275;28;9507;-59
2023/01/14 06:24:02;;;;;;;;;1.00;0.00;;;;;7.12;79.37;99550.16;5095829;28;9491;-59
2023/01/14 06:26:30;;;;;;;;;1.00;0.50;;;;;7.11;79.44;99540.53;5095997;28;8826;-59
2023/01/14 06:28:58;;;;;;;;;0.00;0.00;;;;;7.11;78.67;99529.94;5096458;28;8845;-59
2023/01/14 06:31:25;;;;;;;;;1.50;1.50;;;;;7.11;79.35;99524.63;5096694;28;8822;-58
2023/01/14 06:33:55;;;;;;;;;0.00;0.00;;;;;7.11;78.96;99526.44;5096028;28;9508;-58
2023/01/14 06:36:23;;;;;;;;;1.00;0.50;;;;;7.11;78.80;99519.34;5095151;28;8818;-59
2023/01/14 06:38:50;;;;;;;;;0.75;0.75;;;;;7.10;79.09;99516.81;5094791;28;8826;-58
2023/01/14 06:41:18;;;;;;;;;0.25;0.00;;;;;7.09;78.81;99515.97;5095412;28;8842;-58
2023/01/14 06:43:46;;;;;;;;;0.00;0.00;;;;;7.10;78.92;99506.22;5094742;28;8834;-58
2023/01/14 06:46:14;;;;;;;;;0.00;0.00;;;;;7.11;78.77;99507.91;5094011;28;9491;-59
2023/01/14 06:48:42;;;;;;;;;2.50;2.50;;;;;7.12;78.63;99493.72;5095219;28;8980;-58
2023/01/14 06:51:10;;;;;;;;;2.50;2.50;;;;;7.12;78.83;99488.44;5095421;28;8854;-57
2023/01/14 06:53:37;;;;;;;;;0.00;0.00;;;;;7.12;77.93;99480.50;5095608;28;8837;-59
2023/01/14 06:56:06;;;;;;;;;1.00;1.00;;;;;7.09;78.66;99470.97;5095793;28;8802;-58
2023/01/14 06:58:34;;;;;;;;;0.00;0.00;;;;;7.08;78.46;99469.28;5095910;28;8834;-59
2023/01/14 07:01:02;;;;;;;;;1.00;0.00;;;;;7.08;78.71;99471.06;5095667;28;8918;-58
2023/01/14 07:03:30;;;;;;;;;0.00;0.00;;;;;7.07;78.76;99469.38;5096343;28;9492;-57
2023/01/14 07:05:58;;;;;;;;;0.50;0.50;;;;;7.07;78.18;99467.59;5095765;28;8826;-59
2023/01/14 07:08:26;;;;;;;;;1.00;0.00;;;;;7.08;78.45;99449.91;5095807;28;8937;-59
2023/01/14 07:10:54;;;;;;;;;0.50;0.50;;;;;7.10;78.39;99469.16;5096105;28;8829;-59
2023/01/14 07:13:22;;;;;;;;;0.00;0.00;;;;;7.12;78.25;99444.25;5095809;28;8822;-59
2023/01/14 07:15:51;;;;;;;;;1.00;0.00;;;;;7.14;77.79;99446.81;5094707;28;8863;-58
2023/01/14 07:18:19;;;;;;;;;0.75;0.75;;;;;7.16;78.15;99436.94;5093675;28;8822;-59
2023/01/14 07:20:47;;;;;;;;;0.00;0.00;;;;;7.15;77.79;99424.66;5094561;28;8857;-58
2023/01/14 07:23:15;;;;;;;;;1.00;0.00;;;;;7.17;78.10;99423.59;5094475;28;8849;-58
2023/01/14 07:25:42;;;;;;;;;0.00;0.00;;;;;7.18;77.92;99427.06;5094910;28;9883;-59
2023/01/14 07:28:11;;;;;;;;;3.00;1.00;;;;;7.20;77.90;99426.00;5094366;28;8871;-58
2023/01/14 07:30:38;;;;;;;;;0.75;0.75;;;;;7.23;77.95;99424.94;5095017;28;8826;-59
2023/01/14 07:33:06;;;;;;;;;0.00;0.00;;;;;7.24;77.63;99411.59;5095132;28;8806;-58
2023/01/14 07:35:34;;;;;;;;;0.00;0.00;;;;;7.27;77.63;99413.19;5095533;28;8864;-59
2023/01/14 07:38:02;;;;;;;;;2.00;2.00;;;;;7.30;77.59;99416.44;5095240;28;8961;-59
2023/01/14 07:40:30;;;;;;;;;0.00;0.00;;;;;7.33;77.63;99404.75;5094538;28;9515;-58
2023/01/14 07:42:58;;;;;;;;;0.00;0.00;;;;;7.34;77.06;99391.41;5095167;28;8948;-58
2023/01/14 07:45:25;;;;;;;;;0.75;0.00;;;;;7.34;77.30;99388.75;5094602;28;8830;-59
2023/01/14 07:47:54;;;;;;;;;0.50;0.00;;;;;7.33;76.97;99381.78;5095565;28;8830;-59
2023/01/14 07:50:21;;;;;;;;;0.00;0.00;;;;;7.34;77.31;99367.56;5094829;28;8831;-58
2023/01/14 07:52:49;;;;;;;;;0.25;0.25;;;;;7.36;76.65;99370.13;5094618;28;8818;-59
2023/01/14 07:55:17;;;;;;;;;1.00;1.00;;;;;7.38;77.04;99368.19;5093663;28;8830;-58
2023/01/14 07:57:44;;;;;;;;;1.50;0.50;;;;;7.33;77.19;99359.72;5094877;28;8857;-58
2023/01/14 08:00:13;;;;;;;;;0.00;0.00;;;;;7.28;77.22;99343.38;5097305;28;8822;-58
2023/01/14 08:02:40;;;;;;;;;0.00;0.00;;;;;7.24;77.27;99345.41;5097664;28;8818;-57
2023/01/14 08:05:08;;;;;;;;;0.00;0.00;;;;;7.20;77.45;99343.09;5097548;28;8829;-58
2023/01/14 08:07:36;;;;;;;;;0.25;0.25;;;;;7.16;77.79;99326.59;5096403;28;8837;-58
2023/01/14 08:10:04;;;;;;;;;0.00;0.00;;;;;7.15;77.93;99324.06;5096870;28;8873;-56
2023/01/14 08:12:32;;;;;;;;;1.00;1.00;;;;;7.13;77.96;99324.16;5097073;28;8968;-56
2023/01/14 08:15:00;;;;;;;;;2.50;1.00;;;;;7.11;78.05;99325.25;5097667;28;8818;-58
2023/01/14 08:17:28;;;;;;;;;3.75;3.00;;;;;7.07;78.17;99306.13;5096972;28;8956;-58
2023/01/14 08:19:56;;;;;;;;;4.50;3.00;;;;;7.03;78.38;99309.94;5096959;28;8830;-58
2023/01/14 08:22:23;;;;;;;;;3.00;1.00;;;;;6.98;78.32;99324.50;5098506;28;8830;-58
2023/01/14 08:24:51;;;;;;;;;1.50;1.00;;;;;6.93;78.78;99308.09;5098058;28;8961;-58
2023/01/14 08:27:19;;;;;;;;;1.50;0.50;;;;;6.87;79.34;99282.09;5098046;28;8850;-59
2023/01/14 08:29:47;;;;;;;;;1.00;1.00;;;;;6.82;79.06;99294.84;5097310;28;8814;-58
2023/01/14 08:32:15;;;;;;;;;0.00;0.00;;;;;6.80;79.72;99286.16;5097748;28;8920;-58
2023/01/14 08:34:43;;;;;;;;;0.00;0.00;;;;;6.77;79.93;99265.25;5097799;28;8825;-58
2023/01/14 08:37:11;;;;;;;;;0.25;0.25;;;;;6.75;80.33;99256.59;5097847;28;8814;-58
2023/01/14 08:39:39;;;;;;;;;0.50;0.50;;;;;6.74;80.66;99250.44;5097311;28;8829;-58
2023/01/14 08:42:07;;;;;;;;;1.40;0.40;;;;;6.75;80.68;99252.13;5096846;28;8830;-59
2023/01/14 08:44:35;;;;;;;;;0.25;0.25;;;;;6.76;80.80;99252.97;5097277;28;8952;-58
2023/01/14 08:47:02;;;;;;;;;0.75;0.75;;;;;6.77;80.83;99250.22;5097086;28;8841;-58
2023/01/14 08:49:31;;;;;;;;;0.50;0.50;;;;;6.78;81.12;99251.03;5096395;28;8822;-59
2023/01/14 08:51:59;;;;;;;;;0.00;0.00;;;;;6.81;81.40;99229.66;5096226;28;8876;-58
2023/01/14 08:54:27;;;;;;;;;0.75;0.75;;;;;6.85;80.99;99237.25;5094589;28;8838;-58
2023/01/14 08:56:55;;;;;;;;;1.00;1.00;;;;;6.89;81.47;99229.94;5094732;28;8822;-57
2023/01/14 08:59:22;;;;;;;;;0.00;0.00;;;;;6.91;81.10;99230.66;5093588;28;8956;-58
2023/01/14 09:01:51;;;;;;;;;1.00;1.00;;;;;6.94;80.97;99233.91;5094997;28;8910;-57
2023/01/14 09:04:21;;;;;;;;;0.00;0.00;;;;;6.98;81.23;99221.28;5095635;28;8948;-58
2023/01/14 09:17:47;;;;;;;;;0.75;0.75;;;;;7.36;81.08;99195.31;5095589;28;8958;-58
2023/01/14 09:20:15;;;;;;;;;0.00;0.00;;;;;7.45;80.64;99186.66;5095120;28;8934;-56
2023/01/14 09:22:43;;;;;;;;;0.75;0.75;;;;;7.51;80.65;99179.06;5095896;28;8910;-57
2023/01/14 09:25:11;;;;;;;;;1.50;1.00;;;;;7.59;80.29;99173.16;5095455;28;8906;-58
2023/01/14 09:27:53;;;;;;;;;1.00;1.00;;;;;7.67;80.30;99147.75;5094984;28;9865;-58
2023/01/14 09:30:21;;;;;;;;;0.00;0.00;;;;;7.72;79.92;99154.34;5095247;28;8830;-58
2023/01/14 09:32:50;;;;;;;;;0.50;0.50;;;;;7.79;80.02;99134.34;5095251;28;8830;-59
2023/01/14 09:35:18;;;;;;;;;2.00;1.50;;;;;7.84;79.98;99142.75;5095901;28;8961;-59
2023/01/14 09:37:46;;;;;;;;;1.00;1.00;;;;;7.90;79.76;99129.00;5095496;28;8845;-59
2023/01/14 09:40:14;;;;;;;;;0.75;0.75;;;;;7.96;79.77;99115.25;5094672;28;8846;-56
2023/01/14 09:42:43;;;;;;;;;0.50;0.50;;;;;8.01;79.37;99120.16;5094678;28;8989;-59
2023/01/14 09:45:11;;;;;;;;;1.00;0.75;;;;;8.05;79.27;99105.72;5094788;28;8946;-58
2023/01/14 09:47:39;;;;;;;;;0.25;0.25;;;;;8.08;79.53;99102.78;5094561;28;8860;-58
2023/01/14 09:50:07;;;;;;;;;0.50;0.00;;;;;8.12;78.94;99102.41;5093743;28;8838;-58
2023/01/14 09:52:36;;;;;;;;;1.00;1.00;;;;;8.16;79.07;99100.34;5094022;28;8911;-59
2023/01/14 09:55:04;;;;;;;;;1.00;0.00;;;;;8.21;79.15;99096.38;5093688;28;8879;-59
2023/01/14 09:57:32;;;;;;;;;0.00;0.00;;;;;8.24;79.13;99085.53;5093091;28;8821;-57
2023/01/14 10:00:00;;;;;;;;;0.00;0.00;;;;;8.27;79.15;99085.25;5094028;28;8817;-58
2023/01/14 10:02:28;;;;;;;;;1.00;0.50;;;;;8.31;78.66;99075.22;5095050;28;8926;-59
2023/01/14 10:04:56;;;;;;;;;0.00;0.00;;;;;8.34;78.70;99070.50;5094458;28;8814;-59
2023/01/14 10:07:24;;;;;;;;;0.50;0.25;;;;;8.37;78.50;99066.75;5094370;28;8830;-59
2023/01/14 10:09:53;;;;;;;;;0.00;0.00;;;;;8.39;78.49;99046.25;5095859;28;9550;-59
2023/01/14 10:12:20;;;;;;;;;0.00;0.00;;;;;8.41;78.52;99053.09;5095055;28;8834;-59
2023/01/14 10:14:49;;;;;;;;;0.00;0.00;;;;;8.45;78.50;99051.84;5094987;28;8842;-57
2023/01/14 10:17:17;;;;;;;;;0.50;0.50;;;;;8.47;78.51;99036.66;5094836;28;8822;-58
2023/01/14 10:19:45;;;;;;;;;0.00;0.00;;;;;8.50;78.38;99017.81;5094110;28;8850;-58
2023/01/14 10:22:13;;;;;;;;;1.00;1.00;;;;;8.55;78.29;99020.06;5094637;28;8842;-59
2023/01/14 10:24:41;;;;;;;;;0.00;0.00;;;;;8.60;78.26;99012.56;5093838;28;8883;-59
2023/01/14 10:27:09;;;;;;;;;0.00;0.00;;;;;8.65;77.81;98984.66;5094796;28;8842;-59
2023/01/14 10:29:37;;;;;;;;;0.00;0.00;;;;;8.68;77.88;98979.06;5094998;28;8830;-59
2023/01/14 10:32:05;;;;;;;;;0.75;0.00;;;;;8.72;77.20;98959.25;5095276;28;8906;-59
2023/01/14 10:34:33;;;;;;;;;0.00;0.00;;;;;8.77;77.69;98957.06;5094882;28;8830;-59
2023/01/14 10:37:03;;;;;;;;;0.00;0.00;;;;;8.81;77.85;98958.44;5094646;28;8837;-59
2023/01/14 10:39:31;;;;;;;;;0.00;0.00;;;;;8.83;77.40;98929.94;5094647;28;8842;-59
2023/01/14 10:42:01;;;;;;;;;0.00;0.00;;;;;8.85;77.12;98920.06;5093978;28;8849;-58
2023/01/14 10:44:29;;;;;;;;;0.50;0.00;;;;;8.87;77.23;98920.75;5093795;28;8810;-59
2023/01/14 10:46:58;;;;;;;;;0.00;0.00;;;;;8.85;77.84;98913.88;5092865;28;8866;-59
2023/01/14 10:49:26;;;;;;;;;0.00;0.00;;;;;8.75;77.39;98900.59;5092696;28;9824;-57
2023/01/14 10:51:54;;;;;;;;;0.00;0.00;;;;;8.61;77.65;98887.72;5092732;28;9691;-58
2023/01/14 10:54:22;;;;;;;;;0.00;0.00;;;;;8.53;78.66;98868.16;5094051;28;8903;-57
2023/01/14 10:56:50;;;;;;;;;0.00;0.00;;;;;8.44;78.52;98868.97;5093699;28;8902;-57
2023/01/14 10:59:19;;;;;;;;;0.25;0.25;;;;;8.36;78.91;98871.44;5093525;28;8830;-57
2023/01/14 11:01:47;;;;;;;;;0.25;0.00;;;;;8.27;79.04;98867.78;5093519;28;9517;-58
2023/01/14 11:04:15;;;;;;;;;0.00;0.00;;;;;8.18;79.96;98855.31;5093146;28;8814;-58
2023/01/14 11:06:43;;;;;;;;;0.00;0.00;;;;;8.14;80.27;98853.88;5092333;28;8956;-58
2023/01/14 11:09:11;;;;;;;;;1.00;1.00;;;;;8.08;80.12;98865.03;5092903;28;8826;-58
2023/01/14 11:11:40;;;;;;;;;0.00;0.00;;;;;8.03;80.45;98851.34;5092500;28;8858;-57
2023/01/14 11:14:08;;;;;;;;;0.00;0.00;;;;;8.00;81.07;98834.84;5092464;28;9550;-58
2023/01/14 11:16:38;;;;;;;;;0.00;0.00;;;;;7.98;81.42;98826.19;5093483;28;8826;-56
2023/01/14 11:19:06;;;;;;;;;0.00;0.00;;;;;7.97;81.64;98833.31;5092860;28;8887;-58
2023/01/14 11:21:34;;;;;;;;;0.00;0.00;;;;;7.97;81.72;98821.84;5093536;28;9550;-58
2023/01/14 11:24:02;;;;;;;;;0.00;0.00;;;;;7.97;81.96;98817.41;5093135;28;8829;-57
2023/01/14 11:26:30;;;;;;;;;0.00;0.00;;;;;7.97;82.31;98817.41;5093644;28;9579;-57
2023/01/14 11:28:58;;;;;;;;;0.00;0.00;;;;;7.97;82.54;98801.50;5093761;28;8864;-58
2023/01/14 11:31:27;;;;;;;;;0.00;0.00;;;;;7.97;82.24;98809.44;5094963;28;8849;-56
2023/01/14 11:33:55;;;;;;;;;0.00;0.00;;;;;7.97;82.62;98795.34;5098253;28;8849;-62
2023/01/14 11:36:23;;;;;;;;;0.00;0.00;;;;;7.96;82.96;98781.25;5098389;28;8821;-57
2023/01/14 11:38:51;;;;;;;;;0.00;0.00;;;;;7.97;83.25;98776.78;5097880;28;8960;-57
2023/01/14 11:44:07;;;;;;;;;0.25;0.25;;;;;7.97;83.42;98777.63;5091122;28;8854;-57
2023/01/14 11:46:41;;;;;;;;;0.25;0.25;;;;;7.98;83.69;98778.50;5097764;28;8952;-56
2023/01/14 11:49:09;;;;;;;;;0.00;0.00;;;;;8.00;83.40;98766.75;5097797;28;8876;-57
2023/01/14 11:51:38;;;;;;;;;0.00;0.00;;;;;8.02;84.07;98761.31;5097809;28;8863;-58
2023/01/14 11:54:06;;;;;;;;;0.00;0.00;;;;;8.03;84.21;98742.66;5098367;28;8825;-57
2023/01/14 11:56:34;;;;;;;;;0.00;0.00;;;;;8.05;84.00;98730.09;5097847;28;8830;-57
2023/01/14 11:59:02;;;;;;;;;0.00;0.00;;;;;8.07;83.78;98703.44;5097878;28;8856;-57
2023/01/14 12:01:31;;;;;;;;;0.00;0.00;;;;;8.10;84.10;98705.81;5097829;28;8821;-55
2023/01/14 12:03:59;;;;;;;;;0.00;0.00;;;;;8.13;84.00;98690.47;5098069;28;9676;-57
2023/01/14 12:06:27;;;;;;;;;0.00;0.00;;;;;8.16;83.88;98676.09;5098200;28;8852;-55
2023/01/14 12:08:56;;;;;;;;;0.00;0.00;;;;;8.19;83.99;98646.69;5097487;28;8845;-57
2023/01/14 12:11:24;;;;;;;;;0.00;0.00;;;;;8.21;83.98;98629.66;5097297;28;8837;-57
2023/01/14 12:16:49;;;;;;;;;0.00;0.00;;;;;8.30;83.86;98618.22;5057117;28;9483;-58
2023/01/14 12:19:17;;;;;;;;;0.50;0.00;;;;;8.35;84.30;98617.81;5097250;28;9872;-57
2023/01/14 12:21:45;;;;;;;;;0.00;0.00;;;;;8.40;83.95;98591.69;5097651;28;8854;-57
2023/01/14 12:24:13;;;;;;;;;0.00;0.00;;;;;8.43;84.33;98586.13;5097739;28;8845;-55
2023/01/14 12:26:41;;;;;;;;;0.00;0.00;;;;;8.44;84.61;98588.63;5097850;28;8903;-57
2023/01/14 12:29:10;;;;;;;;;0.00;0.00;;;;;8.47;84.52;98583.03;5097251;28;8830;-57